Flight Track Log - Related Links

Times and Time Zones

All times are in EDT time to prevent confusion due to time zone crossing. See the VNR184 flight status page for this flight to view local times or setup timezone preferences in your user account.


Time Position Orientation Groundspeed Altitude Reporting Facility
EDT Latitude Longitude Course Direction KTS MPH feet Rate Location/Type
Thu 01:11:01 PM 51.0667 -114.0500 180° South 130 150 3,700  Level Edmonton Center
Thu 01:12:01 PM 51.0167 -114.0500 180° South 170 196 5,300 1,600 Climbing Edmonton Center
Thu 01:13:01 PM 50.9667 -114.0167 157° South 190 219 6,900 1,750 Climbing Edmonton Center
Thu 01:14:01 PM 50.9167 -113.9667 148° Southeast 200 230 8,800 1,950 Climbing Edmonton Center
Thu 01:15:01 PM 50.8500 -113.9667 180° South 210 242 10,800 1,900 Climbing Edmonton Center
Thu 01:16:01 PM 50.8000 -113.9500 168° South 220 253 12,600 2,000 Climbing Edmonton Center
Thu 01:17:01 PM 50.7333 -113.9167 162° South 230 265 14,800 2,100 Climbing Edmonton Center
Thu 01:18:01 PM 50.6667 -113.9000 171° South 230 265 16,800 1,850 Climbing Edmonton Center
Thu 01:19:01 PM 50.6167 -113.8500 148° Southeast 240 276 18,500 1,750 Climbing Edmonton Center
Thu 01:20:01 PM 50.5667 -113.8167 157° South 240 276 20,300 1,700 Climbing Edmonton Center
Thu 01:21:01 PM 50.5000 -113.7333 141° Southeast 250 288 21,900 1,500 Climbing Edmonton Center
Thu 01:22:01 PM 50.4333 -113.6667 147° Southeast 270 311 23,300 1,450 Climbing Edmonton Center
Thu 01:23:01 PM 50.3667 -113.6000 147° Southeast 280 322 24,800 1,400 Climbing Edmonton Center
Thu 01:24:01 PM 50.3167 -113.5000 128° Southeast 290 334 26,100 1,300 Climbing Edmonton Center
Thu 01:25:01 PM 50.2333 -113.4333 153° Southeast 300 345 27,400 1,150 Climbing Edmonton Center
Thu 01:26:01 PM 50.1667 -113.3500 141° Southeast 320 368 28,400 1,000 Climbing Edmonton Center
Thu 01:27:01 PM 50.1000 -113.2500 136° Southeast 330 380 29,400 1,000 Climbing Edmonton Center
Thu 01:28:01 PM 50.0167 -113.1500 142° Southeast 340 391 30,400 950 Climbing Edmonton Center
Thu 01:29:01 PM 49.9500 -113.0667 141° Southeast 350 403 31,300 850 Climbing Edmonton Center
Thu 01:30:01 PM 49.8667 -112.9667 142° Southeast 350 403 32,100 750 Climbing Edmonton Center
Thu 01:31:01 PM 49.7833 -112.8833 147° Southeast 360 414 32,800 700 Climbing Edmonton Center
Thu 01:32:01 PM 49.7000 -112.7833 142° Southeast 360 414 33,500 700 Climbing Edmonton Center
Thu 01:33:01 PM 49.6167 -112.7000 147° Southeast 360 414 34,200 650 Climbing Edmonton Center
Thu 01:34:01 PM 49.5333 -112.6333 153° Southeast 360 414 34,800 400 Climbing Edmonton Center
Thu 01:35:01 PM 49.4333 -112.5333 147° Southeast 370 426 35,000 100 Climbing Edmonton Center
Thu 01:36:01 PM 49.3500 -112.4667 152° Southeast 380 437 35,000  Level Edmonton Center
Thu 01:37:01 PM 49.2500 -112.3667 147° Southeast 400 460 35,000  Level Edmonton Center
Thu 01:38:01 PM 49.1500 -112.3000 156° South 400 460 35,000  Level Edmonton Center
Thu 01:39:01 PM 49.0500 -112.2167 151° Southeast 410 472 35,000  Level Edmonton Center
Thu 01:40:57 PM 48.8931 -112.0289 142° Southeast 409 471 35,000  Level Salt Lake Center
Thu 01:41:59 PM 48.7931 -111.9447 151° Southeast 412 474 35,000  Level Salt Lake Center
Thu 01:43:01 PM 48.6933 -111.8617 151° Southeast 411 473 35,000  Level Salt Lake Center
Thu 01:44:03 PM 48.5936 -111.7772 151° Southeast 411 473 35,000  Level Salt Lake Center
Thu 01:45:05 PM 48.4925 -111.6947 152° Southeast 413 475 35,000  Level Salt Lake Center
Thu 01:46:07 PM 48.3919 -111.6100 151° Southeast 413 475 35,000  Level Salt Lake Center
Thu 01:47:09 PM 48.2717 -111.5117 151° Southeast 412 474 35,000  Level Salt Lake Center
Thu 01:48:11 PM 48.1714 -111.4294 151° Southeast 411 473 35,000  Level Salt Lake Center
Thu 01:49:13 PM 48.0725 -111.3481 151° Southeast 408 470 35,000  Level Salt Lake Center
Thu 01:50:15 PM 47.9714 -111.2664 152° Southeast 410 472 35,000  Level Salt Lake Center
Thu 01:51:17 PM 47.8719 -111.1844 151° Southeast 408 470 35,000  Level Salt Lake Center
Thu 01:52:19 PM 47.7717 -111.1025 151° Southeast 407 468 35,000  Level Salt Lake Center
Thu 01:53:21 PM 47.6708 -111.0222 152° Southeast 406 467 35,000  Level Salt Lake Center
Thu 01:54:23 PM 47.5700 -110.9406 151° Southeast 406 467 35,000  Level Salt Lake Center
Thu 01:55:24 PM 47.4714 -110.8617 152° Southeast 402 463 35,000  Level Salt Lake Center
Thu 01:56:26 PM 47.3531 -110.7689 152° Southeast 401 461 35,000  Level Salt Lake Center
Thu 01:57:28 PM 47.2553 -110.6911 152° Southeast 399 459 35,000  Level Salt Lake Center
Thu 01:58:30 PM 47.1586 -110.6142 152° Southeast 396 456 35,000  Level Salt Lake Center
Thu 01:59:32 PM 47.0603 -110.5381 152° Southeast 400 460 35,000  Level Salt Lake Center
Thu 02:00:34 PM 46.9622 -110.4628 152° Southeast 400 460 35,000  Level Salt Lake Center
Thu 02:01:36 PM 46.8639 -110.3858 152° Southeast 400 460 35,000  Level Salt Lake Center
Thu 02:02:38 PM 46.7453 -110.2956 152° Southeast 401 461 35,000  Level Salt Lake Center
Thu 02:03:40 PM 46.6486 -110.2247 153° Southeast 400 460 35,000  Level Salt Lake Center
Thu 02:04:42 PM 46.5550 -110.1503 151° Southeast 399 459 35,000  Level Salt Lake Center
Thu 02:05:44 PM 46.4444 -110.0667 152° Southeast 401 461 35,000  Level Salt Lake Center
Thu 02:06:46 PM 46.3506 -109.9967 153° Southeast 399 459 35,000  Level Salt Lake Center
Thu 02:07:48 PM 46.2408 -109.9131 152° Southeast 399 459 35,000  Level Salt Lake Center
Thu 02:08:50 PM 46.1461 -109.8414 152° Southeast 401 461 35,000  Level Salt Lake Center
Thu 02:09:51 PM 46.0375 -109.7558 151° Southeast 400 460 35,000  Level Salt Lake Center
Thu 02:10:53 PM 45.9428 -109.6864 153° Southeast 401 461 35,000  Level Salt Lake Center
Thu 02:11:55 PM 45.8328 -109.6056 153° Southeast 398 458 35,000  Level Salt Lake Center
Thu 02:12:57 PM 45.7383 -109.5353 153° Southeast 398 458 35,000  Level Salt Lake Center
Thu 02:13:59 PM 45.6283 -109.4542 153° Southeast 397 457 35,000  Level Salt Lake Center
Thu 02:15:01 PM 45.5328 -109.3864 154° Southeast 400 460 35,000  Level Salt Lake Center
Thu 02:16:02 PM 45.4389 -109.3172 153° Southeast 398 458 35,000  Level Salt Lake Center
Thu 02:17:04 PM 45.3289 -109.2369 153° Southeast 399 459 35,000  Level Salt Lake Center
Thu 02:18:06 PM 45.2339 -109.1686 153° Southeast 399 459 35,000  Level Salt Lake Center
Thu 02:19:08 PM 45.1231 -109.0881 153° Southeast 400 460 35,000  Level Salt Lake Center
Thu 02:20:10 PM 45.0300 -109.0208 153° Southeast 396 456 35,000  Level Salt Lake Center
Thu 02:21:12 PM 44.9181 -108.9408 153° Southeast 402 463 35,000  Level Salt Lake Center
Thu 02:22:13 PM 44.8222 -108.8728 153° Southeast 403 464 35,000  Level Salt Lake Center
Thu 02:23:15 PM 44.7117 -108.7947 153° Southeast 400 460 35,000  Level Salt Lake Center
Thu 02:24:17 PM 44.6167 -108.7278 153° Southeast 400 460 35,000  Level Salt Lake Center
Thu 02:25:19 PM 44.5072 -108.6506 153° Southeast 396 456 35,000  Level Salt Lake Center
Thu 02:26:21 PM 44.4122 -108.5836 153° Southeast 399 459 35,000  Level Salt Lake Center
Thu 02:27:23 PM 44.3003 -108.5061 154° Southeast 402 463 35,000  Level Salt Lake Center
Thu 02:28:25 PM 44.2056 -108.4394 153° Southeast 400 460 35,000  Level Salt Lake Center
Thu 02:29:27 PM 44.0950 -108.3633 154° Southeast 398 458 35,000  Level Salt Lake Center
Thu 02:30:28 PM 44.0008 -108.2981 153° Southeast 397 457 35,000  Level Salt Lake Center
Thu 02:31:30 PM 43.9067 -108.2339 154° Southeast 396 456 35,000  Level Salt Lake Center
Thu 02:32:32 PM 43.7958 -108.1572 153° Southeast 399 459 35,000  Level Salt Lake Center
Thu 02:33:34 PM 43.7022 -108.0925 153° Southeast 394 453 35,000  Level Salt Lake Center
Thu 02:34:36 PM 43.5922 -108.0175 154° Southeast 394 453 35,000  Level Salt Lake Center
Thu 02:35:38 PM 43.4969 -107.9536 154° Southeast 395 455 35,000  Level Salt Lake Center
Thu 02:36:40 PM 43.3881 -107.8794 154° Southeast 391 450 35,000  Level Salt Lake Center
Thu 02:37:42 PM 43.2933 -107.8161 154° Southeast 393 452 35,000  Level Salt Lake Center
Thu 02:38:44 PM 43.1847 -107.7428 154° Southeast 391 450 35,000  Level Salt Lake Center
Thu 02:39:46 PM 43.0903 -107.6794 154° Southeast 394 453 35,000  Level Salt Lake Center
Thu 02:40:48 PM 42.9808 -107.6072 154° Southeast 392 451 35,000  Level Salt Lake Center
Thu 02:41:50 PM 42.8797 -107.5386 154° Southeast 394 453 35,000  Level Salt Lake Center
Thu 02:42:52 PM 42.7861 -107.4769 154° Southeast 389 448 35,000  Level Salt Lake Center
Thu 02:43:53 PM 42.6767 -107.4036 154° Southeast 392 451 35,000  Level Salt Lake Center
Thu 02:44:55 PM 42.5831 -107.3425 154° Southeast 391 450 35,000  Level Salt Lake Center
Thu 02:45:57 PM 42.4894 -107.2814 154° Southeast 390 449 35,000  Level Salt Lake Center
Thu 02:47:02 PM 42.3806 -107.2111 155° Southeast 388 447 35,000  Level Denver Center
Thu 02:48:04 PM 42.2725 -107.1397 154° Southeast 387 445 35,000  Level Denver Center
Thu 02:49:06 PM 42.1775 -107.0783 154° Southeast 391 450 35,000  Level Denver Center
Thu 02:50:08 PM 42.0689 -107.0083 154° Southeast 387 445 35,000  Level Denver Center
Thu 02:51:10 PM 41.9750 -106.9478 154° Southeast 390 449 35,000  Level Denver Center
Thu 02:52:12 PM 41.8828 -106.8886 154° Southeast 386 444 35,000  Level Denver Center
Thu 02:53:14 PM 41.7744 -106.8194 155° Southeast 385 443 35,000  Level Denver Center
Thu 02:54:16 PM 41.6822 -106.7617 155° Southeast 384 442 35,000  Level Denver Center
Thu 02:55:18 PM 41.5725 -106.6919 155° Southeast 388 447 35,000  Level Denver Center
Thu 02:56:20 PM 41.4817 -106.6353 155° Southeast 381 438 35,000  Level Denver Center
Thu 02:57:22 PM 41.3747 -106.5675 155° Southeast 382 440 35,000  Level Denver Center
Thu 02:58:24 PM 41.2831 -106.5094 155° Southeast 382 440 35,000 -387 Level Denver Center
Thu 02:59:26 PM 41.1753 -106.4425 155° Southeast 382 440 34,200 -871 Descending Denver Center
Thu 03:00:28 PM 41.0822 -106.3847 155° Southeast 385 443 33,200 -1,065 Descending Denver Center
Thu 03:01:30 PM 40.9814 -106.3000 148° Southeast 390 449 32,000 -585 Descending Denver Center
Thu 03:02:31 PM 40.9139 -106.2025 132° Southeast 378 435 32,000  Level Denver Center
Thu 03:03:33 PM 40.8356 -106.0969 134° Southeast 373 429 32,000 -339 Level Denver Center
Thu 03:04:35 PM 40.7639 -105.9964 133° Southeast 373 429 31,300 -1,597 Descending Denver Center
Thu 03:05:37 PM 40.6872 -105.8886 133° Southeast 392 451 28,700 -2,613 Descending Denver Center
Thu 03:06:39 PM 40.6114 -105.7856 134° Southeast 392 451 25,900 -2,516 Descending Denver Center
Thu 03:07:41 PM 40.5403 -105.6883 134° Southeast 371 427 23,500 -2,323 Descending Denver Center
Thu 03:08:43 PM 40.4753 -105.5975 133° Southeast 349 402 21,100 -2,244 Descending Denver Center
Thu 03:09:44 PM 40.4111 -105.5089 134° Southeast 341 392 18,900 -2,146 Descending Denver Center
Thu 03:10:46 PM 40.3386 -105.4131 135° Southeast 323 372 16,700 -1,887 Descending Denver Center
Thu 03:11:48 PM 40.2825 -105.3506 140° Southeast 269 310 15,000 -1,742 Descending Denver Center
Thu 03:12:50 PM 40.2125 -105.3019 152° Southeast 263 303 13,100 -1,452 Descending Denver Center
Thu 03:13:52 PM 40.1506 -105.2586 152° Southeast 257 296 12,000 -1,113 Descending Denver Center
Thu 03:14:54 PM 40.0900 -105.2153 151° Southeast 235 270 10,800 -1,024 Descending Denver Center
Thu 03:15:55 PM 40.0336 -105.1783 153° Southeast 228 262 9,900 -878 Descending Denver Center
Thu 03:16:57 PM 39.9764 -105.1403 153° Southeast 230 265 9,000 -435 Descending Denver Center
Thu 03:17:59 PM 39.9139 -105.0989 153° Southeast 233 268 9,000  Level Denver Center
Thu 03:19:01 PM 39.8547 -105.0622 155° Southeast 236 272 9,000  Level Denver Center
Thu 03:20:03 PM 39.7944 -105.0222 153° Southeast 229 264 9,000 -48 Level Denver Center
Thu 03:21:05 PM 39.7347 -104.9894 157° South 232 267 8,900 -488 Descending Denver Center
Thu 03:22:06 PM 39.6711 -104.9553 158° South 231 266 8,000 -439 Descending Denver Center
Thu 03:23:08 PM 39.6261 -104.9200 149° Southeast 192 221 8,000 -145 Level Denver Center
Thu 03:24:10 PM 39.5708 -104.9147 176° South 207 238 7,700 -484 Descending Denver Center
Thu 03:25:12 PM 39.5139 -104.9067 174° South 192 221 7,000 -435 Descending Denver Center
Thu 03:26:14 PM 39.5214 -104.8553 79° East 154 177 6,800 -532 Descending Denver Center
Thu 03:27:16 PM 39.5539 -104.8503 North 141 162 5,900 -871 Descending Denver Center
Thu 03:29:00 PM 39.5667 -104.8333 63° Northeast  Level FlightAware Approximate
Thu 03:36:00 PM 39.5701 -104.8493 63° Northeast  Level Estimated
Thu 03:37:00 PM 39.5701 -104.8493 63° Northeast  Level Estimated

Login

Don't have an account? Register now (free) for customized features, flight alerts, and more!